Ride Results

Jill Sheean Memorial Ride (12-09-2015)
Ride distance: 80.0 km

Outcomes - Jill Sheean Memorial Ride (12-09-2015)
Division No. of Entries Retired / DNE Completed Withdrawn Ineligible V/O Percentage Completed
HW 9 - 6 1 - 2 66.67%
MW 20 - 16 - - 4 80.00%
LW 12 - 8 2 - 2 66.67%
JN 21 - 18 - - 3 85.71%
Totals 62 - 48 3 - 11 77.42%
Results - Jill Sheean Memorial Ride (12-09-2015)
No. Rider Horse Place Time Leg Speeds Total
Km/Hr
H/R bpm
Heavyweight
194 Robby Walsh Free Spirit Czar 1 (BC) 4:20:00 17.5, 19.4 18.46 36, 47, 49 (Avg:48)
122 Ged Nicklason Wongawol Legend 2 5:06:00 15.9, 15.4 15.69 44, 45, 57 (Avg:51)
G Greg Henry Bellawongarah Beau 3 5:25:00 16.6, 13.2 14.77 47, 47, 54 (Avg:50)
185 Dale Press Dat Murphy 4 6:08:00 13.1, 12.9 13.04 42, 43, 47 (Avg:45)
109 David Campbell Awarran Park Silver Raven 5 6:35:00 13.1, 11.2 12.15 38, 42, 53 (Avg:47)
212 Jan Lewin Rokewood Calgary 6 6:56:00 12.3, 10.8 11.54 46, 47, 51 (Avg:49)
137 John Shoobridge Tex Heart Rate L2 0:00:00 16.6, 13.5 - 35, 45, 75 (Avg:60)
166 Craig Wilson Stellar Express Lame L2 0:00:00 15.6, 14.7 - 34, 46, 58 (Avg:52)
F Danza Hardwicke Rossfields Showoff Widthdrawn P/R 0:00:00 - - 31, 0 (Avg:0)
Middleweight
57 Tania Jago Undurra Max 1 (BC) 4:24:00 17.8, 18.5 18.18 48, 44, 51 (Avg:47)
136 Kaye Mitchell Beer Street Takone 1 4:24:00 17.3, 19.1 18.18 39, 47, 52 (Avg:49)
114 Tara Nicklason Wattlelea Zaharra 3 5:06:00 15.9, 15.4 15.69 36, 47, 56 (Avg:51)
69 Tracey Wyllie Elphyn Ripple 4 5:07:00 15.6, 15.6 15.64 34, 40, 46 (Avg:43)
76 Karin Morris Rivergum Skye 5 5:41:00 14.5, 13.6 14.08 35, 44, 55 (Avg:49)
21 Karen Quinn Distinctive-L-Zarin (au) 6 6:02:00 13.3, 13.1 13.26 36, 43, 46 (Avg:44)
216 David Evelyn Kalody Park Eclipse 7 6:08:00 13.3, 12.7 13.04 40, 50, 45 (Avg:47)
70 Chels Royer Shea Tarn Shades of Grey 7 6:08:00 12.8, 13.2 13.04 48, 52, 47 (Avg:49)
274 Flynn Miller Fine Art 9 6:09:00 12.9, 13.0 13.01 35, 44, 52 (Avg:48)
79 Shannon Hill Glendhu Chester 10 6:13:00 12.7, 12.9 12.87 36, 41, 46 (Avg:43)
77 Samantha Sward Razara Momentum 10 6:13:00 12.7, 12.9 12.87 35, 46, 46 (Avg:46)
110 Amanda Campbell Davlyn Park Camille 12 6:35:00 13.1, 11.2 12.15 36, 40, 52 (Avg:46)
271 Jessie Mihocek DVS Sunsilk 13 6:43:00 12.2, 11.5 11.91 47, 48, 53 (Avg:50)
256 Wendy Smith Sir Angus of Seven Oaks 13 6:43:00 12.1, 11.6 11.91 44, 45, 52 (Avg:48)
263 Linda Pilgrim Lauralyn Imari 15 7:11:00 11.9, 10.3 11.14 35, 40, 48 (Avg:44)
92 Blaine Astell Rose Gum Tolstoy 16 7:21:00 11.1, 10.6 10.88 42, 55, 55 (Avg:55)
179 Debbie Grull Ben Lame L2 0:00:00 12.2, 11.5 - 38, 39, 37 (Avg:38)
119 Max Lockhart Billy Metabolics severe L2 0:00:00 12.9, 7.4 - 38, 49, 95 (Avg:72)
104 Joshua Williams Diamond R Arthur Lame L2 0:00:00 13.3, 13.1 - 39, 46, 48 (Avg:47)
22 Helen Astell Christmas Lights Lame L1 0:00:00 11.1 - 33, 39 (Avg:39)
Lightweight
298 Olivia Barnard Yondover Ridge Bee 1 5:06:00 15.2, 16.0 15.69 35, 46, 54 (Avg:50)
150 Emily Shadbolt Tanbark Banjo 2 (BC) 5:12:00 15.2, 15.4 15.38 34, 48, 44 (Avg:46)
54 Brooke McKenna Miss Mika 3 5:41:00 10.6, 20.6 14.08 40, 45, 52 (Avg:48)
115 Jenny Keygan Woodsong Kasanova 4 6:43:00 12.1, 11.6 11.91 30, 41, 48 (Avg:44)
90 Angela Hawks Cameo Arpeggio 5 6:44:00 11.4, 12.3 11.88 29, 41, 49 (Avg:45)
29 Kristy Keep Samson of Glendhu 6 7:04:00 12.8, 10.1 11.32 32, 48, 55 (Avg:51)
23 Tracey Nutting Acaciavej ShadowyTash 7 7:21:00 11.5, 10.2 10.88 33, 38, 44 (Avg:41)
314 Loren Simonetta Kalody Park Zayeem 8 7:41:00 13.1, 8.6 10.41 41, 42, 45 (Avg:43)
125 Brooke Brown-Cordell Awarran Park Royal Symbol Widthdrawn L2 0:00:00 - - 44, 43, 45 (Avg:44)
199 Amy Dawkins Amire Lame L1 0:00:00 10.2 - 38, 49 (Avg:49)
225 Jane Walsh Banda Boozle Lame L1 0:00:00 17.8 - 42, 39 (Avg:39)
228 Melissa Kelly Melody Widthdrawn P/R 0:00:00 - - 51
Junior
94Y Darcy Begley Beer Street Banshee 1 (BC) 4:25:50 16.6, 19.7 18.06 38, 42, 52 (Avg:47)
24Y Scarlet McQueen Beer Street Dezhda 1 4:25:50 16.6, 19.7 18.06 39, 40, 44 (Avg:42)
79Y Louis Ryan Beer Street Lizzy B 1 4:25:50 16.6, 19.7 18.06 34, 42, 46 (Avg:44)
80Y Heather Colbeck Awarran Park Princely Aura 4 4:26:00 17.5, 18.5 18.05 37, 47, 52 (Avg:49)
67Y Tahlia Franke Castella Soldier Boy 5 5:07:00 15.6, 15.6 15.64 35, 41, 46 (Avg:43)
5Y Corey Foley DJ Ernie 6 5:17:00 11.6, 21.5 15.14 33, 47, 54 (Avg:50)
29Y Georgia Burley Karraway's Gazelle 7 6:02:00 13.3, 13.1 13.26 33, 45, 44 (Avg:44)
292 Holli Anthony OToole Dream Catcher Te 8 6:04:00 14.0, 12.4 13.19 35, 41, 43 (Avg:42)
13Y Hayley Marshall Rowallan Aspin 9 6:05:00 14.1, 12.3 13.15 36, 48, 53 (Avg:50)
41Y Amelia Napier Rivergum Windchime 9 6:05:00 14.1, 12.3 13.15 40, 45, 48 (Avg:46)
311 Annie Evelyn Atashys Oasis 11 6:08:00 13.3, 12.7 13.04 36, 49, 59 (Avg:54)
113 Kirstie Lockhart Lord Stuart of Seven Oaks 12 6:09:00 12.9, 13.0 13.01 45, 48, 53 (Avg:50)
16Y Grace Huxtable Tierview Salama 13 6:15:00 12.4, 13.1 12.80 38, 41, 50 (Avg:45)
297 Brittany Farrell Awarran Park Silver Starlite 14 6:30:00 13.1, 11.5 12.31 57, 50, 50 (Avg:50)
290 Jessica Williams Awarran Park Starlite Shayde 14 6:30:00 13.1, 11.5 12.31 32, 42, 41 (Avg:41)
281 Kandy Whiley Santanova 16 6:44:00 11.4, 12.3 11.88 36, 46, 48 (Avg:47)
168 Emily Gerke Armidale Flash Jack 17 7:04:00 12.3, 10.4 11.32 35, 42, 47 (Avg:44)
247 Ali Smith Espirit Jeramiah 18 7:11:00 11.9, 10.3 11.14 38, 50, 58 (Avg:54)
11Y Jaz Hutchins Benstock Little Miss Rosie Heart Rate L2 0:00:00 17.4, 18.7 - 44, 51, 63 (Avg:57)
157 David Anderson Jnr Vandieman Eve Lame L1 0:00:00 12.4 - 36, 44, 48 (Avg:46)
19Y Indianna Humphries Harmere Burkhan Lame L1 0:00:00 15.0 - 36, 46 (Avg:46)